Time;durP1;ratioP1;P1;durP2;ratioP2;P2;SDS_P1;SDS_P2;PMS_P1;PMS_P2;Temp;Humidity;BMP_temperature;BMP_pressure;BME280_temperature;BME280_humidity;BME280_pressure;Samples;Min_cycle;Max_cycle;Signal;HPM_P1;HPM_P2
2022/08/11 00:01:31;;;;;;;8.40;6.00;;;17.50;81.90;;;;;;5410212;23;21041;-67
2022/08/11 00:04:01;;;;;;;9.00;6.87;;;17.50;82.00;;;;;;4988618;28;20304;-68
2022/08/11 00:06:38;;;;;;;8.20;6.10;;;17.50;82.20;;;;;;5007698;28;20066;-68
2022/08/11 00:09:09;;;;;;;11.63;6.70;;;17.50;82.40;;;;;;5008051;28;20602;-68
2022/08/11 00:11:42;;;;;;;9.70;6.30;;;17.40;82.40;;;;;;5006573;28;20339;-68
2022/08/11 00:14:30;;;;;;;10.80;6.60;;;17.50;82.40;;;;;;5005185;28;20305;-68
2022/08/11 00:16:59;;;;;;;8.77;6.10;;;17.40;82.30;;;;;;5007495;28;20292;-67
2022/08/11 00:19:31;;;;;;;8.73;5.73;;;17.30;82.50;;;;;;5007909;28;20304;-68
2022/08/11 00:21:58;;;;;;;10.23;6.30;;;17.30;82.40;;;;;;5007625;28;20293;-68
2022/08/11 00:24:30;;;;;;;9.83;6.13;;;17.20;82.70;;;;;;5022796;28;20361;-67
2022/08/11 00:26:57;;;;;;;9.93;6.63;;;17.20;82.80;;;;;;4991724;28;20285;-68
2022/08/11 00:29:22;;;;;;;7.70;6.00;;;17.20;83.10;;;;;;4989376;28;20315;-68
2022/08/11 00:31:51;;;;;;;7.93;6.07;;;17.20;83.00;;;;;;4991718;28;20324;-68
2022/08/11 00:34:27;;;;;;;10.57;6.83;;;17.10;82.90;;;;;;5003993;28;20535;-68
2022/08/11 00:37:06;;;;;;;9.27;6.17;;;17.10;83.20;;;;;;4990626;28;20284;-68
2022/08/11 00:39:41;;;;;;;11.87;6.63;;;17.10;83.30;;;;;;4987290;28;20285;-68
2022/08/11 00:42:25;;;;;;;8.07;6.88;;;17.00;83.30;;;;;;4995657;28;20296;-68
2022/08/11 00:45:10;;;;;;;8.63;6.33;;;17.00;83.30;;;;;;5029771;28;20049;-68
2022/08/11 00:48:02;;;;;;;9.53;6.40;;;17.00;83.40;;;;;;4991661;28;20287;-68
2022/08/11 00:51:09;;;;;;;11.03;6.30;;;17.00;83.40;;;;;;5004596;28;20289;-68
2022/08/11 00:54:01;;;;;;;8.37;6.10;;;17.00;83.40;;;;;;4950805;28;20290;-68
2022/08/11 00:56:47;;;;;;;8.37;6.10;;;16.90;83.30;;;;;;4953892;28;20286;-68
2022/08/11 00:59:31;;;;;;;8.83;6.53;;;16.90;83.60;;;;;;4991098;28;20379;-67
2022/08/11 01:02:15;;;;;;;9.53;6.77;;;16.90;83.40;;;;;;4995710;28;20534;-67
2022/08/11 01:05:26;;;;;;;10.17;6.70;;;16.90;83.70;;;;;;5006479;28;20319;-68
2022/08/11 01:08:07;;;;;;;9.47;6.43;;;16.80;83.60;;;;;;5001004;28;20714;-68
2022/08/11 01:10:36;;;;;;;10.90;7.07;;;16.80;83.50;;;;;;4991635;28;20283;-68
2022/08/11 01:13:45;;;;;;;8.07;6.50;;;16.80;83.60;;;;;;5012722;28;20283;-68
2022/08/11 01:16:30;;;;;;;9.57;6.83;;;16.80;83.60;;;;;;5008206;28;20281;-68
2022/08/11 01:19:30;;;;;;;10.77;7.70;;;16.70;83.80;;;;;;4998439;28;20300;-68
2022/08/11 01:22:28;;;;;;;9.60;7.77;;;16.70;84.00;;;;;;4986397;28;20042;-68
2022/08/11 01:25:16;;;;;;;11.10;7.93;;;16.60;84.10;;;;;;5003478;28;20708;-68
2022/08/11 01:28:07;;;;;;;11.40;7.97;;;16.60;84.30;;;;;;5006490;28;20281;-68
2022/08/11 01:31:02;;;;;;;10.63;7.87;;;16.60;84.40;;;;;;5007254;28;20414;-68
2022/08/11 01:33:55;;;;;;;11.10;7.20;;;16.60;84.50;;;;;;4984914;28;20362;-67
2022/08/11 01:36:40;;;;;;;10.77;7.57;;;16.60;84.50;;;;;;4992336;28;20064;-68
2022/08/11 01:39:11;;;;;;;11.40;7.35;;;16.60;84.50;;;;;;5033552;28;20304;-68
2022/08/11 01:45:01;;;;;;;9.93;7.40;;;16.60;84.50;;;;;;5012564;28;20277;-68
2022/08/11 01:47:55;;;;;;;8.17;6.70;;;16.50;84.60;;;;;;5013421;28;20284;-68
2022/08/11 01:50:48;;;;;;;9.80;6.90;;;16.50;84.80;;;;;;5013748;28;20695;-68
2022/08/11 01:53:45;;;;;;;11.47;7.47;;;16.40;84.80;;;;;;5011383;28;20281;-68
2022/08/11 01:56:32;;;;;;;13.13;7.47;;;16.40;85.00;;;;;;5010047;28;20299;-68
2022/08/11 01:59:33;;;;;;;12.13;7.43;;;16.40;85.10;;;;;;5010203;28;20291;-68
2022/08/11 02:02:16;;;;;;;8.43;6.80;;;16.40;85.00;;;;;;5013014;28;20740;-68
2022/08/11 02:05:30;;;;;;;10.70;6.87;;;16.30;85.10;;;;;;5002587;28;20748;-68
2022/08/11 02:08:00;;;;;;;11.00;7.20;;;16.30;85.10;;;;;;5000694;28;20319;-68
2022/08/11 02:13:32;;;;;;;11.70;8.23;;;16.40;85.40;;;;;;5009938;28;20288;-68
2022/08/11 02:16:31;;;;;;;10.10;7.53;;;16.30;85.40;;;;;;5009520;28;20711;-68
2022/08/11 02:25:02;;;;;;;11.93;8.13;;;16.40;85.50;;;;;;5012868;28;20284;-68
2022/08/11 02:27:37;;;;;;;;;;;16.30;85.40;;;;;;5011764;28;20281;-68
2022/08/11 02:30:21;;;;;;;11.00;7.28;;;16.30;85.30;;;;;;4996975;28;20219;-68
2022/08/11 02:33:22;;;;;;;12.87;8.10;;;16.30;85.20;;;;;;4995206;28;20057;-68
2022/08/11 02:36:18;;;;;;;14.57;8.33;;;16.20;85.30;;;;;;5012421;28;20772;-68
2022/08/11 02:39:08;;;;;;;12.07;8.48;;;16.20;85.40;;;;;;5008266;28;20292;-68
2022/08/11 02:42:23;;;;;;;10.87;8.13;;;16.20;85.40;;;;;;4980811;28;20049;-68
2022/08/11 02:45:10;;;;;;;10.90;8.13;;;16.20;85.80;;;;;;4995381;28;20748;-68
2022/08/11 02:50:51;;;;;;;13.73;9.50;;;16.20;85.70;;;;;;5013126;28;20420;-68
2022/08/11 02:53:37;;;;;;;;;;;16.10;85.70;;;;;;5010643;28;20092;-68
2022/08/11 02:56:10;;;;;;;11.60;8.30;;;16.10;85.60;;;;;;5009437;28;20000;-68
2022/08/11 03:02:01;;;;;;;14.60;8.43;;;16.10;85.80;;;;;;4999636;28;20804;-68
2022/08/11 03:04:48;;;;;;;12.93;8.97;;;16.10;85.80;;;;;;5010622;28;20340;-68
2022/08/11 03:07:35;;;;;;;14.07;9.57;;;16.00;85.80;;;;;;5006009;28;20335;-68
2022/08/11 03:10:23;;;;;;;16.77;9.07;;;16.00;86.20;;;;;;5009647;28;21069;-68
2022/08/11 03:19:02;;;;;;;14.77;9.13;;;16.00;86.40;;;;;;5007074;28;20285;-68
2022/08/11 03:22:09;;;;;;;15.23;9.77;;;15.90;86.30;;;;;;4992036;28;20304;-68
2022/08/11 03:24:56;;;;;;;13.47;9.20;;;15.90;86.50;;;;;;5002170;28;20324;-68
2022/08/11 03:27:28;;;;;;;15.90;9.57;;;15.90;86.30;;;;;;4992150;28;20345;-68
2022/08/11 03:29:54;;;;;;;14.33;9.27;;;15.90;86.50;;;;;;5012505;28;20728;-68
2022/08/11 03:32:28;;;;;;;11.57;8.43;;;15.80;86.40;;;;;;5011587;28;20284;-68
2022/08/11 03:35:00;;;;;;;13.23;9.53;;;15.80;86.60;;;;;;4988476;28;20281;-68
2022/08/11 03:37:50;;;;;;;13.10;8.97;;;15.90;86.90;;;;;;4992206;28;20347;-68
2022/08/11 03:43:32;;;;;;;14.23;10.43;;;15.90;86.90;;;;;;4999083;28;20273;-68
2022/08/11 03:46:20;;;;;;;21.63;10.50;;;15.80;86.90;;;;;;5007976;28;20284;-68
2022/08/11 03:49:08;;;;;;;13.57;10.37;;;15.80;86.90;;;;;;5008589;28;20284;-68
2022/08/11 03:52:04;;;;;;;14.30;9.50;;;15.80;87.00;;;;;;5008725;28;20281;-68
2022/08/11 03:54:55;;;;;;;12.60;9.80;;;15.80;87.20;;;;;;5008447;28;20358;-68
2022/08/11 03:57:51;;;;;;;13.97;9.27;;;15.90;87.10;;;;;;5009431;28;20099;-68
2022/08/11 04:00:48;;;;;;;15.87;10.00;;;15.90;87.30;;;;;;4991983;28;20319;-68
2022/08/11 04:03:59;;;;;;;15.57;10.17;;;15.90;87.20;;;;;;4990245;28;20371;-68
2022/08/11 04:06:47;;;;;;;14.40;10.23;;;15.90;87.30;;;;;;4981308;28;20293;-68
2022/08/11 04:09:46;;;;;;;15.20;9.83;;;15.80;87.10;;;;;;4990391;28;20637;-68
2022/08/11 04:12:37;;;;;;;17.37;10.70;;;15.80;87.40;;;;;;4995398;28;20309;-68
2022/08/11 04:18:24;;;;;;;17.37;11.20;;;15.80;87.60;;;;;;5000686;28;20835;-68
2022/08/11 04:21:21;;;;;;;18.03;10.43;;;15.80;87.60;;;;;;5007644;28;20313;-67
2022/08/11 04:24:06;;;;;;;14.73;10.37;;;15.80;87.60;;;;;;5007442;28;20277;-68
2022/08/11 04:26:55;;;;;;;17.58;10.40;;;15.80;87.70;;;;;;5007522;28;20288;-68
2022/08/11 04:30:00;;;;;;;12.60;9.73;;;15.90;87.90;;;;;;4997048;28;20111;-68
2022/08/11 04:33:01;;;;;;;14.80;10.57;;;15.80;87.90;;;;;;5017975;28;20463;-68
2022/08/11 04:35:42;;;;;;;15.93;10.00;;;15.90;88.20;;;;;;4993754;28;20645;-68
2022/08/11 04:38:43;;;;;;;13.87;10.30;;;15.90;88.00;;;;;;5001728;28;20277;-68
2022/08/11 04:43:19;;;;;;;15.10;10.10;;;15.90;88.10;;;;;;5004012;28;20309;-68
2022/08/11 04:44:45;;;;;;;18.43;10.70;;;15.90;88.20;;;;;;5000391;28;20368;-68
2022/08/11 05:03:27;;;;;;;13.90;10.03;;;16.10;88.20;;;;;;4993179;28;20363;-68
2022/08/11 05:06:24;;;;;;;14.07;10.40;;;16.10;88.30;;;;;;4986451;28;20637;-68
2022/08/11 05:08:59;;;;;;;14.87;10.13;;;16.20;88.10;;;;;;4987338;28;20296;-68
2022/08/11 05:11:52;;;;;;;16.53;11.40;;;16.20;88.20;;;;;;4990437;28;20293;-68
2022/08/11 05:37:04;;;;;;;12.93;9.73;;;16.90;88.00;;;;;;4997816;28;20288;-68
2022/08/11 05:59:24;;;;;;;13.17;9.10;;;17.80;86.60;;;;;;5071099;28;20365;-66
2022/08/11 06:01:51;;;;;;;16.30;10.40;;;17.60;86.30;;;;;;5067627;28;20278;-66
2022/08/11 06:04:22;;;;;;;15.37;10.40;;;17.70;86.20;;;;;;5083385;28;20278;-66
2022/08/11 06:06:55;;;;;;;13.20;9.93;;;17.80;85.70;;;;;;5044666;28;20677;-66
2022/08/11 06:09:34;;;;;;;12.77;9.73;;;17.90;85.50;;;;;;5083174;28;20343;-66
2022/08/11 06:12:25;;;;;;;14.50;9.23;;;17.90;85.50;;;;;;5047434;28;20370;-66
2022/08/11 06:14:54;;;;;;;16.80;10.23;;;18.00;85.20;;;;;;5050216;28;20311;-66
2022/08/11 06:17:27;;;;;;;14.37;9.70;;;18.10;85.20;;;;;;5036381;28;20453;-66
2022/08/11 06:20:00;;;;;;;13.53;9.23;;;18.20;85.20;;;;;;5054779;28;20294;-67
2022/08/11 06:22:26;;;;;;;14.70;10.13;;;18.30;85.20;;;;;;5047712;28;20289;-67
2022/08/11 06:24:57;;;;;;;12.90;9.20;;;18.40;85.30;;;;;;5078884;28;20275;-67
2022/08/11 06:27:28;;;;;;;13.00;9.07;;;18.50;84.70;;;;;;5046487;28;20279;-66
2022/08/11 06:29:54;;;;;;;12.83;9.20;;;18.60;84.80;;;;;;5045797;28;20329;-66
2022/08/11 06:32:27;;;;;;;10.97;8.23;;;18.70;84.60;;;;;;5060542;28;20279;-66
2022/08/11 06:35:11;;;;;;;10.90;7.87;;;18.80;84.30;;;;;;5052798;28;20378;-67
2022/08/11 06:38:05;;;;;;;13.05;8.35;;;19.00;83.40;;;;;;5076801;28;20310;-66
2022/08/11 06:41:29;;;;;;;12.33;8.70;;;19.20;83.50;;;;;;5048364;28;20175;-66
2022/08/11 06:44:15;;;;;;;9.17;7.17;;;19.30;82.80;;;;;;5049366;28;20389;-67
2022/08/11 06:46:47;;;;;;;13.10;8.63;;;19.80;82.90;;;;;;5058018;28;20045;-67
2022/08/11 06:52:15;;;;;;;13.33;8.07;;;20.60;79.70;;;;;;5055168;28;20045;-67
2022/08/11 06:54:49;;;;;;;9.03;7.10;;;21.10;77.80;;;;;;5058501;28;20047;-66
2022/08/11 07:02:59;;;;;;;8.33;6.90;;;22.10;73.00;;;;;;5065373;28;20041;-67
2022/08/11 07:05:54;;;;;;;9.90;7.10;;;21.90;72.90;;;;;;5054072;28;20056;-67
2022/08/11 07:17:42;;;;;;;7.00;5.67;;;21.10;74.80;;;;;;5064776;28;20099;-68
2022/08/11 07:28:57;;;;;;;7.03;5.07;;;21.20;74.40;;;;;;5019761;28;20542;-68
2022/08/11 07:31:30;;;;;;;6.03;4.70;;;21.30;73.30;;;;;;5039777;28;20048;-68
2022/08/11 07:34:01;;;;;;;6.97;5.20;;;21.30;73.20;;;;;;5046119;28;20048;-67
2022/08/11 07:36:29;;;;;;;5.83;4.67;;;21.40;73.10;;;;;;5078869;28;20055;-68
2022/08/11 07:38:56;;;;;;;6.37;4.43;;;21.40;73.00;;;;;;5047520;28;20131;-68
2022/08/11 07:41:24;;;;;;;6.73;5.03;;;21.50;73.00;;;;;;5029048;28;20048;-68
2022/08/11 07:43:53;;;;;;;6.80;4.20;;;21.60;72.90;;;;;;5030518;28;20127;-67
2022/08/11 07:54:39;;;;;;;5.87;4.40;;;22.10;72.00;;;;;;5039899;28;20045;-68
2022/08/11 08:19:16;;;;;;;5.50;3.87;;;23.20;69.50;;;;;;5073575;28;20049;-68
2022/08/11 08:21:42;;;;;;;7.37;4.53;;;23.40;68.00;;;;;;5048505;28;20124;-68
2022/08/11 08:24:09;;;;;;;4.63;3.10;;;23.40;67.90;;;;;;5031761;28;20043;-68
2022/08/11 08:32:07;;;;;;;4.70;3.10;;;23.80;67.00;;;;;;5042455;28;20127;-68
2022/08/11 08:34:35;;;;;;;4.97;3.00;;;23.90;66.90;;;;;;5025839;28;20044;-68
2022/08/11 08:37:01;;;;;;;4.23;2.70;;;24.00;66.40;;;;;;5048299;28;20110;-68
2022/08/11 08:39:27;;;;;;;4.63;2.50;;;24.10;66.20;;;;;;5047402;28;20083;-68
2022/08/11 08:41:59;;;;;;;9.37;2.60;;;24.30;65.70;;;;;;5015634;28;20037;-68
2022/08/11 08:44:26;;;;;;;5.10;2.77;;;24.40;64.70;;;;;;5037619;28;20053;-68
2022/08/11 08:46:57;;;;;;;5.37;2.63;;;24.50;64.60;;;;;;5041375;28;20029;-68
2022/08/11 08:49:33;;;;;;;4.63;2.33;;;24.60;64.20;;;;;;5073148;28;20598;-68
2022/08/11 08:52:02;;;;;;;3.23;2.20;;;24.80;64.10;;;;;;5041210;28;20037;-68
2022/08/11 08:54:36;;;;;;;3.80;2.10;;;24.90;63.20;;;;;;5069620;28;20052;-68
2022/08/11 08:57:04;;;;;;;3.63;1.80;;;25.00;63.00;;;;;;5061990;28;20152;-68
2022/08/11 08:59:34;;;;;;;6.17;2.23;;;25.10;63.10;;;;;;5031635;28;20120;-68
2022/08/11 09:02:04;;;;;;;5.33;1.90;;;25.30;62.50;;;;;;5022876;28;20366;-68
2022/08/11 09:04:31;;;;;;;3.83;1.80;;;25.40;61.60;;;;;;5052478;28;20040;-68
2022/08/11 09:07:08;;;;;;;4.33;2.20;;;25.60;60.60;;;;;;5036360;28;20060;-68
2022/08/11 09:09:34;;;;;;;4.07;1.90;;;25.70;60.20;;;;;;5017228;28;20043;-68
2022/08/11 09:12:03;;;;;;;3.27;1.67;;;25.80;60.80;;;;;;5049505;28;20040;-68
2022/08/11 09:17:22;;;;;;;3.77;2.23;;;26.00;59.60;;;;;;5032188;28;20045;-68
2022/08/11 09:19:57;;;;;;;3.67;2.03;;;26.10;58.80;;;;;;5034088;28;20818;-68
2022/08/11 09:28:09;;;;;;;3.55;1.58;;;26.30;58.00;;;;;;4985361;28;20050;-68
2022/08/11 09:30:36;;;;;;;3.60;1.50;;;26.50;58.00;;;;;;5058106;28;20447;-68
2022/08/11 09:33:03;;;;;;;3.87;1.37;;;26.60;57.10;;;;;;5056165;28;20162;-68
2022/08/11 09:35:33;;;;;;;4.03;1.50;;;26.70;55.40;;;;;;5030311;28;20072;-68
2022/08/11 09:40:47;;;;;;;3.83;1.73;;;26.90;55.40;;;;;;5047081;28;20505;-68
2022/08/11 09:46:02;;;;;;;3.63;1.50;;;27.20;53.30;;;;;;5067292;28;20507;-68
2022/08/11 09:48:53;;;;;;;3.20;1.47;;;27.20;54.00;;;;;;5030248;28;20423;-68
2022/08/11 09:51:21;;;;;;;3.17;1.53;;;27.20;53.70;;;;;;5046851;28;20485;-68
2022/08/11 09:53:49;;;;;;;2.87;1.30;;;27.30;53.60;;;;;;5070071;28;20278;-68
2022/08/11 09:59:07;;;;;;;3.37;1.50;;;27.50;52.50;;;;;;5041689;28;20454;-69
2022/08/11 10:01:46;;;;;;;3.37;1.63;;;27.70;52.10;;;;;;5030005;28;20041;-69
2022/08/11 10:04:15;;;;;;;3.13;1.60;;;27.80;51.80;;;;;;5076223;28;20128;-69
2022/08/11 10:07:03;;;;;;;4.67;1.60;;;27.90;51.10;;;;;;5030265;28;20083;-68
2022/08/11 10:09:40;;;;;;;5.47;1.33;;;28.00;50.80;;;;;;5058749;28;20397;-68
2022/08/11 10:12:11;;;;;;;2.03;0.93;;;28.00;51.10;;;;;;5026340;28;20428;-68
2022/08/11 10:17:31;;;;;;;3.17;1.77;;;28.20;49.30;;;;;;5072618;28;20052;-68
2022/08/11 10:20:01;;;;;;;4.07;1.20;;;28.30;49.40;;;;;;5023843;28;20117;-68
2022/08/11 10:27:58;;;;;;;1.93;1.27;;;28.60;49.10;;;;;;5060373;28;20091;-68
2022/08/11 10:35:58;;;;;;;2.87;1.30;;;28.90;48.20;;;;;;5061784;28;20053;-69
2022/08/11 10:38:25;;;;;;;2.80;1.30;;;29.00;47.60;;;;;;5013405;28;20044;-69
2022/08/11 10:43:01;;;;;;;3.87;1.77;;;29.10;46.90;;;;;;5040454;28;20082;-69
2022/08/11 10:43:40;;;;;;;3.63;1.57;;;29.10;46.90;;;;;;5038344;28;20381;-69
2022/08/11 10:48:56;;;;;;;2.77;1.20;;;29.40;46.40;;;;;;5067807;28;20483;-69
2022/08/11 10:59:40;;;;;;;1.67;1.13;;;29.70;45.30;;;;;;5056247;28;20073;-68
2022/08/11 11:02:06;;;;;;;3.80;1.40;;;29.70;45.60;;;;;;5052275;28;20552;-68
2022/08/11 11:05:01;;;;;;;2.60;1.40;;;29.80;45.30;;;;;;5073469;28;20124;-69
2022/08/11 11:07:42;;;;;;;4.22;1.20;;;29.90;43.70;;;;;;5042234;28;20054;-69
2022/08/11 11:10:08;;;;;;;4.00;1.40;;;30.00;41.60;;;;;;5051644;28;20293;-69
2022/08/11 11:18:36;;;;;;;2.27;1.13;;;29.90;43.60;;;;;;5043498;28;20041;-69
2022/08/11 11:21:04;;;;;;;2.87;1.13;;;30.10;43.00;;;;;;5043953;28;20520;-69
2022/08/11 11:23:38;;;;;;;3.17;1.10;;;30.10;42.90;;;;;;5064002;28;20052;-69
2022/08/11 11:26:43;;;;;;;3.38;1.10;;;30.20;41.70;;;;;;5049337;28;20064;-69
2022/08/11 11:29:25;;;;;;;2.78;1.35;;;30.20;41.40;;;;;;5063201;28;20037;-68
2022/08/11 11:32:05;;;;;;;2.60;1.13;;;30.20;41.90;;;;;;5064216;28;20045;-69
2022/08/11 11:34:40;;;;;;;2.30;1.10;;;30.30;41.50;;;;;;5036136;28;20037;-69
2022/08/11 11:37:06;;;;;;;4.93;1.40;;;30.30;41.70;;;;;;5015443;28;20049;-69
2022/08/11 11:39:33;;;;;;;2.73;1.20;;;30.40;42.10;;;;;;5043577;28;20032;-69
2022/08/11 11:42:03;;;;;;;2.30;1.27;;;30.50;40.70;;;;;;5030289;28;20129;-69
2022/08/11 11:44:29;;;;;;;3.70;1.20;;;30.40;41.00;;;;;;5049866;28;20164;-69
2022/08/11 11:46:56;;;;;;;1.20;0.97;;;30.40;42.50;;;;;;5065884;28;20098;-69
2022/08/11 11:49:26;;;;;;;2.60;1.20;;;30.50;40.70;;;;;;5045245;28;20349;-69
2022/08/11 11:51:54;;;;;;;2.43;1.17;;;30.60;40.00;;;;;;5050115;28;20661;-69
2022/08/11 11:54:25;;;;;;;7.80;1.30;;;30.70;40.90;;;;;;5028205;28;20124;-69
2022/08/11 11:56:55;;;;;;;2.87;1.33;;;30.80;40.70;;;;;;5037595;28;20111;-69
2022/08/11 12:02:11;;;;;;;3.50;1.30;;;30.90;39.80;;;;;;5048145;28;20131;-69
2022/08/11 12:04:44;;;;;;;1.77;1.10;;;30.90;40.60;;;;;;5039586;28;20041;-69
2022/08/11 12:09:57;;;;;;;3.97;1.43;;;31.00;40.10;;;;;;5068600;28;20048;-69
2022/08/11 12:15:10;;;;;;;1.90;1.40;;;31.20;39.30;;;;;;5037491;28;20037;-69
2022/08/11 12:17:37;;;;;;;1.30;0.90;;;31.20;38.40;;;;;;5032659;28;20392;-69
2022/08/11 12:20:04;;;;;;;3.77;1.03;;;31.20;38.90;;;;;;5031572;28;20037;-69
2022/08/11 12:27:59;;;;;;;2.20;1.40;;;31.40;39.30;;;;;;5035697;28;19917;-69
2022/08/11 12:30:25;;;;;;;2.57;1.30;;;31.40;39.00;;;;;;5051099;28;20129;-69
2022/08/11 12:32:51;;;;;;;1.87;1.17;;;31.40;38.80;;;;;;5048102;28;20084;-69
2022/08/11 12:35:17;;;;;;;1.70;1.20;;;31.50;38.90;;;;;;5042158;28;20076;-69
2022/08/11 12:37:53;;;;;;;4.33;1.20;;;31.60;38.60;;;;;;5051513;28;20060;-69
2022/08/11 12:46:04;;;;;;;1.80;0.90;;;31.60;37.00;;;;;;5069705;28;20045;-69
2022/08/11 12:54:30;;;;;;;3.67;1.20;;;31.70;37.10;;;;;;5048869;28;20060;-69
2022/08/11 13:05:21;;;;;;;4.40;1.20;;;31.90;37.80;;;;;;5047711;28;20049;-68
2022/08/11 13:07:48;;;;;;;3.50;1.10;;;32.00;37.70;;;;;;5017121;28;20441;-69
2022/08/11 13:12:46;;;;;;;1.03;0.70;;;32.10;36.90;;;;;;5047749;28;20069;-69
2022/08/11 13:13:06;;;;;;;1.47;0.80;;;32.10;36.90;;;;;;5073568;28;20079;-69
2022/08/11 13:15:35;;;;;;;4.15;1.48;;;32.10;36.50;;;;;;5039695;28;20040;-69
2022/08/11 13:18:02;;;;;;;2.43;0.90;;;32.00;36.40;;;;;;5037413;28;20030;-69
2022/08/11 13:20:28;;;;;;;3.50;1.00;;;32.10;36.30;;;;;;5047562;28;20033;-69
2022/08/11 13:22:57;;;;;;;1.67;0.97;;;32.10;36.90;;;;;;5067510;28;20112;-69
2022/08/11 13:25:26;;;;;;;2.40;1.00;;;32.10;35.90;;;;;;5015267;28;20473;-69
2022/08/11 13:27:56;;;;;;;2.17;1.00;;;32.10;35.60;;;;;;5038282;28;20041;-69
2022/08/11 13:33:18;;;;;;;3.63;1.10;;;32.10;36.10;;;;;;5046011;28;20053;-69
2022/08/11 13:35:50;;;;;;;2.37;1.00;;;32.20;36.30;;;;;;5011447;28;20037;-69
2022/08/11 13:38:18;;;;;;;1.83;1.30;;;32.20;35.90;;;;;;5045099;28;20536;-69
2022/08/11 13:40:45;;;;;;;2.37;1.00;;;32.20;35.10;;;;;;5047317;28;20396;-69
2022/08/11 13:43:14;;;;;;;2.13;0.90;;;32.20;35.50;;;;;;5044588;28;20386;-68
2022/08/11 13:45:42;;;;;;;1.65;1.08;;;32.30;35.80;;;;;;5042228;28;20535;-68
2022/08/11 13:48:09;;;;;;;4.78;1.05;;;32.40;35.30;;;;;;5045909;28;20071;-69
2022/08/11 13:53:21;;;;;;;3.83;0.80;;;32.50;34.60;;;;;;5070235;28;20057;-69
2022/08/11 13:55:48;;;;;;;1.00;0.80;;;32.30;35.00;;;;;;5048044;28;20049;-69
2022/08/11 13:58:15;;;;;;;1.80;0.87;;;32.40;34.80;;;;;;5041616;28;20526;-68
2022/08/11 14:00:45;;;;;;;2.40;0.80;;;32.50;35.20;;;;;;5063421;28;20130;-69
2022/08/11 14:03:12;;;;;;;3.67;1.00;;;32.50;34.60;;;;;;5023650;28;20033;-69
2022/08/11 14:05:55;;;;;;;1.33;0.68;;;32.60;34.20;;;;;;5053370;28;20221;-69
2022/08/11 14:08:26;;;;;;;1.30;0.80;;;32.70;34.10;;;;;;5066594;28;20055;-69
2022/08/11 14:13:42;;;;;;;1.75;1.00;;;32.70;34.10;;;;;;5039796;28;20107;-69
2022/08/11 14:16:18;;;;;;;1.73;1.03;;;32.80;35.90;;;;;;5040104;28;20046;-69
2022/08/11 14:18:46;;;;;;;3.23;1.20;;;32.80;36.80;;;;;;5046531;28;20064;-69
2022/08/11 14:24:02;;;;;;;4.17;0.93;;;32.70;37.50;;;;;;5033476;28;20125;-69
2022/08/11 14:26:30;;;;;;;3.65;1.17;;;32.60;38.10;;;;;;5035412;28;20037;-69
2022/08/11 14:29:07;;;;;;;1.63;0.80;;;32.60;37.60;;;;;;5050479;28;20049;-69
2022/08/11 14:31:36;;;;;;;1.47;0.80;;;32.50;37.50;;;;;;5035841;28;20057;-69
2022/08/11 14:34:06;;;;;;;5.30;0.87;;;32.50;37.50;;;;;;5038966;28;20080;-69
2022/08/11 14:36:43;;;;;;;2.17;1.10;;;32.40;37.50;;;;;;5073589;28;20053;-69
2022/08/11 14:39:15;;;;;;;4.43;0.70;;;32.50;37.70;;;;;;5048530;28;20040;-69
2022/08/11 14:47:21;;;;;;;3.03;0.87;;;32.50;36.50;;;;;;5045954;28;20041;-69
2022/08/11 14:49:50;;;;;;;2.30;0.70;;;32.40;37.20;;;;;;5044781;28;20472;-69
2022/08/11 14:52:19;;;;;;;2.13;0.87;;;32.40;37.10;;;;;;5012487;28;20045;-69
2022/08/11 14:57:38;;;;;;;3.57;0.97;;;32.30;37.80;;;;;;5075112;28;20052;-69
2022/08/11 15:00:11;;;;;;;2.17;1.13;;;32.40;37.90;;;;;;5042593;28;20045;-69
2022/08/11 15:05:24;;;;;;;4.87;1.30;;;32.30;37.50;;;;;;5035784;28;20041;-69
2022/08/11 15:07:52;;;;;;;3.37;1.07;;;32.20;37.60;;;;;;5050650;28;20445;-69
2022/08/11 15:10:19;;;;;;;4.10;1.00;;;32.20;37.70;;;;;;5049525;28;20049;-69
2022/08/11 15:12:46;;;;;;;2.00;0.73;;;32.20;37.90;;;;;;5049746;28;20048;-69
2022/08/11 15:18:00;;;;;;;3.30;1.17;;;32.20;38.30;;;;;;5049632;28;20052;-69
2022/08/11 15:26:10;;;;;;;2.07;1.20;;;32.00;38.90;;;;;;5032796;28;20408;-69
2022/08/11 15:37:25;;;;;;;3.73;1.10;;;32.20;39.30;;;;;;5048629;28;20132;-69
2022/08/11 15:46:05;;;;;;;1.90;1.10;;;32.00;39.10;;;;;;5070206;28;20045;-69
2022/08/11 15:48:30;;;;;;;2.50;1.10;;;31.80;39.40;;;;;;5064690;28;20048;-69
2022/08/11 15:51:04;;;;;;;4.97;1.20;;;31.70;40.20;;;;;;5034204;28;20040;-69
2022/08/11 15:53:45;;;;;;;10.47;1.27;;;31.70;39.90;;;;;;5069469;28;20042;-69
2022/08/11 15:56:13;;;;;;;5.53;1.00;;;31.70;40.20;;;;;;5031511;28;20041;-69
2022/08/11 16:04:24;;;;;;;2.30;0.90;;;31.60;40.20;;;;;;5047673;28;20386;-69
2022/08/11 16:06:59;;;;;;;2.83;0.87;;;31.60;40.60;;;;;;5064994;28;20147;-69
2022/08/11 16:09:45;;;;;;;;;;;31.60;40.80;;;;;;5036719;28;20048;-69
2022/08/11 16:12:27;;;;;;;3.00;0.77;;;31.50;40.30;;;;;;5044678;28;19986;-69
2022/08/11 16:17:49;;;;;;;4.07;1.03;;;31.40;41.10;;;;;;5035837;28;20107;-69
2022/08/11 16:20:23;;;;;;;3.30;1.10;;;31.40;41.00;;;;;;5028680;28;20518;-69
2022/08/11 16:22:51;;;;;;;5.43;0.80;;;31.30;40.70;;;;;;5033686;28;20591;-69
2022/08/11 16:25:23;;;;;;;2.67;0.90;;;31.30;40.70;;;;;;5040847;28;20033;-69
2022/08/11 16:28:04;;;;;;;1.23;0.70;;;31.20;41.40;;;;;;5045820;28;20045;-69
2022/08/11 16:30:32;;;;;;;2.00;0.70;;;31.20;40.90;;;;;;5039167;28;20431;-69
2022/08/11 16:32:59;;;;;;;4.30;1.17;;;31.20;40.50;;;;;;5060671;28;20080;-69
2022/08/11 16:40:59;;;;;;;2.13;0.60;;;31.00;41.10;;;;;;5050615;28;20073;-69
2022/08/11 16:49:21;;;;;;;3.97;1.03;;;30.80;40.90;;;;;;5064539;28;20081;-69
2022/08/11 16:51:47;;;;;;;1.77;0.90;;;30.70;40.80;;;;;;5045869;28;20041;-69
2022/08/11 16:54:13;;;;;;;4.63;0.80;;;30.70;41.10;;;;;;5041890;28;20390;-69
2022/08/11 16:56:44;;;;;;;1.97;1.10;;;30.70;40.90;;;;;;5019613;28;20046;-69
2022/08/11 16:59:25;;;;;;;3.37;0.80;;;30.70;40.80;;;;;;5067281;28;20055;-69
2022/08/11 17:01:54;;;;;;;1.97;0.87;;;30.60;41.10;;;;;;5038335;28;20037;-69
2022/08/11 17:18:38;;;;;;;2.40;1.00;;;29.90;42.60;;;;;;5067422;28;20041;-69
2022/08/11 17:21:01;;;;;;;2.20;1.00;;;29.80;42.50;;;;;;5036283;28;20345;-69
2022/08/11 17:23:46;;;;;;;2.00;0.90;;;29.70;43.30;;;;;;5025838;28;20131;-69
2022/08/11 17:26:26;;;;;;;2.50;0.90;;;29.60;43.60;;;;;;5024880;28;20043;-69
2022/08/11 17:29:03;;;;;;;1.80;0.97;;;29.60;43.10;;;;;;5039448;28;20044;-69
2022/08/11 17:36:58;;;;;;;;;;;29.80;42.80;;;;;;5040360;28;20045;-69
2022/08/11 17:39:28;;;;;;;5.77;1.00;;;30.00;42.70;;;;;;5059884;28;19950;-68
2022/08/11 17:50:11;;;;;;;2.10;0.90;;;30.50;42.30;;;;;;5054811;28;20489;-70
2022/08/11 18:00:58;;;;;;;2.80;0.93;;;30.70;42.10;;;;;;5051131;28;20053;-69
2022/08/11 18:03:38;;;;;;;3.17;1.00;;;30.80;42.20;;;;;;5034293;28;20386;-70
2022/08/11 18:06:06;;;;;;;2.23;0.73;;;30.80;42.20;;;;;;5034760;28;20120;-70
